CFC1941 KRVS-KMSP
Flight info
| Callsign | CFC1941 |
|---|---|
| Flight time | 1h 30m |
| Altitude | 41000 |
| Route | TUL CNU WEITT BVEEE ROKKK NITZR4 |
| Aircraft | CL60/M-SADE3FGHIJ3J4J7P2RWXY/HB1D1 |
Departure
| Time | 2026-05-05 03:05 |
|---|---|
| Airport | Tulsa Riverside Airport (KRVS) |
Arrival
| Time | 2026-05-05 04:35 |
|---|---|
| Airport | Minneapolis–Saint Paul International Airport / Wold–Chamberlain Field (KMSP) |
| Time | Latitude | Longitude | Altitude | Speed | Heading |
|---|---|---|---|---|---|
| 2026-05-05 02:33 | 36.04034 | -95.98804 | 646 ft | 0 kts | 15° |
| 2026-05-05 02:33 | 36.04034 | -95.98805 | 646 ft | 0 kts | 15° |
| 2026-05-05 02:33 | 36.04034 | -95.98804 | 646 ft | 0 kts | 15° |
| 2026-05-05 02:34 | 36.04034 | -95.98805 | 646 ft | 0 kts | 15° |
| 2026-05-05 02:34 | 36.04034 | -95.98804 | 646 ft | 0 kts | 15° |
| 2026-05-05 02:38 | 36.04034 | -95.98805 | 646 ft | 0 kts | 15° |
| 2026-05-05 02:39 | 36.04034 | -95.98804 | 646 ft | 0 kts | 15° |
| 2026-05-05 02:40 | 36.04034 | -95.98805 | 646 ft | 0 kts | 15° |
| 2026-05-05 02:41 | 36.04034 | -95.98804 | 646 ft | 0 kts | 15° |
| 2026-05-05 02:43 | 36.04034 | -95.98805 | 646 ft | 0 kts | 15° |
| 2026-05-05 02:43 | 36.04034 | -95.98804 | 646 ft | 0 kts | 15° |
| 2026-05-05 02:44 | 36.04034 | -95.98805 | 646 ft | 0 kts | 15° |
| 2026-05-05 03:00 | 36.04034 | -95.98804 | 646 ft | 0 kts | 15° |
| 2026-05-05 03:00 | 36.04064 | -95.98790 | 646 ft | 8 kts | 33° |
| 2026-05-05 03:00 | 36.04081 | -95.98772 | 646 ft | 0 kts | 51° |
| 2026-05-05 03:00 | 36.04084 | -95.98760 | 646 ft | 1 kts | 99° |
| 2026-05-05 03:01 | 36.04074 | -95.98728 | 646 ft | 5 kts | 98° |
| 2026-05-05 03:01 | 36.04127 | -95.98689 | 646 ft | 14 kts | 15° |
| 2026-05-05 03:01 | 36.04268 | -95.98649 | 646 ft | 23 kts | 14° |
| 2026-05-05 03:01 | 36.04436 | -95.98600 | 646 ft | 26 kts | 14° |
| 2026-05-05 03:02 | 36.04619 | -95.98547 | 646 ft | 20 kts | 14° |
| 2026-05-05 03:02 | 36.04676 | -95.98515 | 646 ft | 4 kts | 65° |
| 2026-05-05 03:02 | 36.04678 | -95.98492 | 646 ft | 0 kts | 96° |
| 2026-05-05 03:03 | 36.04675 | -95.98468 | 646 ft | 6 kts | 104° |
| 2026-05-05 03:04 | 36.04659 | -95.98413 | 646 ft | 6 kts | 135° |
| 2026-05-05 03:04 | 36.04592 | -95.98410 | 646 ft | 18 kts | 194° |
| 2026-05-05 03:04 | 36.04170 | -95.98534 | 646 ft | 109 kts | 195° |
| 2026-05-05 03:04 | 36.03184 | -95.98811 | 735 ft | 170 kts | 188° |
| 2026-05-05 03:05 | 36.01935 | -95.99019 | 1303 ft | 188 kts | 186° |
| 2026-05-05 03:05 | 36.00627 | -95.99297 | 2204 ft | 203 kts | 188° |
| 2026-05-05 03:05 | 35.99297 | -95.99123 | 3665 ft | 198 kts | 160° |
| 2026-05-05 03:05 | 35.98137 | -95.98105 | 4673 ft | 223 kts | 140° |
| 2026-05-05 03:06 | 35.97202 | -95.96456 | 5492 ft | 256 kts | 124° |
| 2026-05-05 03:06 | 35.96651 | -95.94255 | 6369 ft | 285 kts | 103° |
| 2026-05-05 03:06 | 35.96589 | -95.91730 | 7390 ft | 298 kts | 89° |
| 2026-05-05 03:06 | 35.96802 | -95.89205 | 8451 ft | 304 kts | 78° |
| 2026-05-05 03:07 | 35.97657 | -95.86829 | 9551 ft | 306 kts | 57° |
| 2026-05-05 03:07 | 35.98957 | -95.84795 | 10637 ft | 302 kts | 38° |
| 2026-05-05 03:07 | 36.00640 | -95.83302 | 11744 ft | 296 kts | 21° |
| 2026-05-05 03:07 | 36.02519 | -95.82437 | 12907 ft | 284 kts | 5° |
| 2026-05-05 03:08 | 36.04406 | -95.82024 | 14137 ft | 277 kts | 2° |
| 2026-05-05 03:08 | 36.06348 | -95.81625 | 14845 ft | 293 kts | 2° |
| 2026-05-05 03:08 | 36.08447 | -95.81192 | 15393 ft | 313 kts | 3° |
| 2026-05-05 03:08 | 36.10620 | -95.80733 | 16237 ft | 320 kts | 4° |
| 2026-05-05 03:09 | 36.12815 | -95.80265 | 17134 ft | 325 kts | 4° |
| 2026-05-05 03:09 | 36.15040 | -95.79790 | 18015 ft | 328 kts | 4° |
| 2026-05-05 03:09 | 36.17302 | -95.79305 | 18903 ft | 331 kts | 3° |
| 2026-05-05 03:09 | 36.19585 | -95.78838 | 19719 ft | 334 kts | 1° |
| 2026-05-05 03:10 | 36.21871 | -95.78511 | 20490 ft | 336 kts | 359° |
| 2026-05-05 03:10 | 36.24216 | -95.78200 | 21298 ft | 339 kts | 359° |
| 2026-05-05 03:10 | 36.26554 | -95.77889 | 22077 ft | 341 kts | 359° |
| 2026-05-05 03:10 | 36.28928 | -95.77573 | 22773 ft | 346 kts | 359° |
| 2026-05-05 03:11 | 36.31339 | -95.77251 | 23500 ft | 349 kts | 358° |
| 2026-05-05 03:11 | 36.33757 | -95.76927 | 24194 ft | 352 kts | 357° |
| 2026-05-05 03:11 | 36.36182 | -95.76601 | 24949 ft | 352 kts | 356° |
| 2026-05-05 03:11 | 36.38621 | -95.76276 | 25545 ft | 356 kts | 356° |
| 2026-05-05 03:12 | 36.41093 | -95.75942 | 26236 ft | 356 kts | 354° |
| 2026-05-05 03:12 | 36.43574 | -95.75611 | 26769 ft | 360 kts | 354° |
| 2026-05-05 03:12 | 36.46057 | -95.75277 | 27380 ft | 361 kts | 354° |
| 2026-05-05 03:12 | 36.48556 | -95.74940 | 27981 ft | 361 kts | 353° |
| 2026-05-05 03:13 | 36.51044 | -95.74606 | 28492 ft | 363 kts | 353° |
| 2026-05-05 03:13 | 36.53583 | -95.74262 | 29046 ft | 364 kts | 352° |
| 2026-05-05 03:13 | 36.56087 | -95.73924 | 29564 ft | 365 kts | 352° |
| 2026-05-05 03:13 | 36.58654 | -95.73583 | 29949 ft | 370 kts | 352° |
| 2026-05-05 03:14 | 36.61205 | -95.73235 | 30590 ft | 368 kts | 352° |
| 2026-05-05 03:14 | 36.63744 | -95.72891 | 31045 ft | 370 kts | 351° |
| 2026-05-05 03:14 | 36.66297 | -95.72546 | 31505 ft | 371 kts | 351° |
| 2026-05-05 03:14 | 36.68876 | -95.72193 | 32102 ft | 369 kts | 351° |
| 2026-05-05 03:15 | 36.71443 | -95.71848 | 32397 ft | 373 kts | 350° |
| 2026-05-05 03:15 | 36.74048 | -95.71500 | 32713 ft | 377 kts | 351° |
| 2026-05-05 03:15 | 36.76676 | -95.71141 | 33186 ft | 376 kts | 351° |
| 2026-05-05 03:15 | 36.79275 | -95.70787 | 33540 ft | 378 kts | 350° |
| 2026-05-05 03:16 | 36.81896 | -95.70432 | 33886 ft | 379 kts | 351° |
| 2026-05-05 03:16 | 36.84528 | -95.70077 | 34226 ft | 380 kts | 350° |
| 2026-05-05 03:16 | 36.87172 | -95.69722 | 34592 ft | 381 kts | 351° |
| 2026-05-05 03:16 | 36.89809 | -95.69357 | 35098 ft | 378 kts | 350° |
| 2026-05-05 03:17 | 36.92434 | -95.68994 | 35640 ft | 373 kts | 350° |
| 2026-05-05 03:17 | 36.95021 | -95.68636 | 36135 ft | 369 kts | 350° |
| 2026-05-05 03:17 | 36.97563 | -95.68285 | 36593 ft | 366 kts | 350° |
| 2026-05-05 03:17 | 37.00098 | -95.67937 | 36923 ft | 365 kts | 350° |
| 2026-05-05 03:18 | 37.02632 | -95.67593 | 37204 ft | 365 kts | 349° |
| 2026-05-05 03:18 | 37.05175 | -95.67248 | 37413 ft | 367 kts | 349° |
| 2026-05-05 03:18 | 37.07756 | -95.66891 | 37856 ft | 362 kts | 349° |
| 2026-05-05 03:18 | 37.09770 | -95.66616 | 37989 ft | 364 kts | 349° |
| 2026-05-05 03:19 | 37.12240 | -95.66270 | 37890 ft | 372 kts | 349° |
| 2026-05-05 03:19 | 37.14852 | -95.65912 | 38230 ft | 370 kts | 349° |
| 2026-05-05 03:19 | 37.17397 | -95.65560 | 38690 ft | 365 kts | 349° |
| 2026-05-05 03:20 | 37.19938 | -95.65205 | 39235 ft | 358 kts | 349° |
| 2026-05-05 03:20 | 37.22416 | -95.64862 | 39636 ft | 354 kts | 348° |
| 2026-05-05 03:20 | 37.27347 | -95.64195 | 39892 ft | 357 kts | 348° |
| 2026-05-05 03:21 | 37.29812 | -95.63853 | 40275 ft | 352 kts | 348° |
| 2026-05-05 03:21 | 37.32248 | -95.63521 | 40384 ft | 353 kts | 349° |
| 2026-05-05 03:21 | 37.34693 | -95.63185 | 40608 ft | 352 kts | 348° |
| 2026-05-05 03:21 | 37.37162 | -95.62849 | 40736 ft | 353 kts | 349° |
| 2026-05-05 03:22 | 37.42081 | -95.62181 | 40712 ft | 359 kts | 349° |
| 2026-05-05 03:22 | 37.47127 | -95.61493 | 40726 ft | 366 kts | 349° |
| 2026-05-05 03:23 | 37.52235 | -95.60792 | 40714 ft | 371 kts | 349° |
| 2026-05-05 03:23 | 37.57416 | -95.60078 | 40704 ft | 376 kts | 348° |
| 2026-05-05 03:24 | 37.62674 | -95.59337 | 40733 ft | 383 kts | 350° |
| 2026-05-05 03:24 | 37.68017 | -95.58223 | 40713 ft | 392 kts | 352° |
| 2026-05-05 03:25 | 37.73435 | -95.57053 | 40715 ft | 395 kts | 352° |
| 2026-05-05 03:25 | 37.78901 | -95.55855 | 40716 ft | 397 kts | 353° |
| 2026-05-05 03:26 | 37.84357 | -95.54652 | 40726 ft | 399 kts | 352° |
| 2026-05-05 03:26 | 37.89877 | -95.53436 | 40746 ft | 401 kts | 352° |
| 2026-05-05 03:27 | 37.95398 | -95.52219 | 40731 ft | 403 kts | 352° |
| 2026-05-05 03:27 | 38.00950 | -95.50991 | 40736 ft | 404 kts | 352° |
| 2026-05-05 03:28 | 38.06541 | -95.49756 | 40727 ft | 406 kts | 353° |
| 2026-05-05 03:28 | 38.12121 | -95.48521 | 40738 ft | 407 kts | 353° |
| 2026-05-05 03:29 | 38.17778 | -95.47267 | 40728 ft | 411 kts | 352° |
| 2026-05-05 03:29 | 38.23451 | -95.46010 | 40740 ft | 413 kts | 353° |
| 2026-05-05 03:30 | 38.29163 | -95.44743 | 40723 ft | 415 kts | 352° |
| 2026-05-05 03:30 | 38.34914 | -95.43462 | 40717 ft | 419 kts | 353° |
| 2026-05-05 03:31 | 38.40703 | -95.42177 | 40727 ft | 422 kts | 353° |
| 2026-05-05 03:31 | 38.46526 | -95.40880 | 40744 ft | 424 kts | 353° |
| 2026-05-05 03:32 | 38.52395 | -95.39562 | 40727 ft | 426 kts | 353° |
| 2026-05-05 03:32 | 38.58300 | -95.38234 | 40721 ft | 429 kts | 353° |
| 2026-05-05 03:33 | 38.64210 | -95.36903 | 40715 ft | 430 kts | 354° |
| 2026-05-05 03:33 | 38.70180 | -95.35558 | 40724 ft | 431 kts | 353° |
| 2026-05-05 03:34 | 38.76149 | -95.34209 | 40749 ft | 431 kts | 354° |
| 2026-05-05 03:34 | 38.82070 | -95.32872 | 40741 ft | 432 kts | 353° |
| 2026-05-05 03:35 | 38.87998 | -95.31533 | 40744 ft | 432 kts | 353° |
| 2026-05-05 03:35 | 38.93984 | -95.30176 | 40741 ft | 431 kts | 354° |
| 2026-05-05 03:36 | 38.99938 | -95.28829 | 40724 ft | 432 kts | 353° |
| 2026-05-05 03:36 | 39.05853 | -95.27484 | 40764 ft | 432 kts | 354° |
| 2026-05-05 03:37 | 39.11877 | -95.26114 | 40720 ft | 434 kts | 354° |
| 2026-05-05 03:37 | 39.17841 | -95.24752 | 40737 ft | 435 kts | 353° |
| 2026-05-05 03:38 | 39.20849 | -95.24103 | 40627 ft | 435 kts | 354° |
| 2026-05-05 03:38 | 39.23822 | -95.23418 | 40729 ft | 435 kts | 354° |
| 2026-05-05 03:38 | 39.29831 | -95.22034 | 40741 ft | 436 kts | 354° |
| 2026-05-05 03:39 | 39.35823 | -95.20655 | 40754 ft | 437 kts | 355° |
| 2026-05-05 03:39 | 39.41829 | -95.19273 | 40771 ft | 438 kts | 355° |
| 2026-05-05 03:40 | 39.47870 | -95.17881 | 40752 ft | 441 kts | 355° |
| 2026-05-05 03:40 | 39.53956 | -95.16476 | 40767 ft | 442 kts | 355° |
| 2026-05-05 03:41 | 39.60014 | -95.15076 | 40790 ft | 444 kts | 356° |
| 2026-05-05 03:41 | 39.66196 | -95.13647 | 40785 ft | 446 kts | 356° |
| 2026-05-05 03:42 | 39.69228 | -95.12901 | 40520 ft | 451 kts | 7° |
| 2026-05-05 03:42 | 39.72382 | -95.12070 | 38228 ft | 473 kts | 357° |
| 2026-05-05 03:42 | 39.75614 | -95.11331 | 37563 ft | 460 kts | 357° |
| 2026-05-05 03:42 | 39.78748 | -95.10612 | 37944 ft | 452 kts | 356° |
| 2026-05-05 03:43 | 39.81807 | -95.09909 | 38360 ft | 444 kts | 356° |
| 2026-05-05 03:43 | 39.83809 | -95.09449 | 38581 ft | 441 kts | 355° |
| 2026-05-05 03:43 | 39.86627 | -95.08802 | 38844 ft | 437 kts | 356° |
| 2026-05-05 03:43 | 39.89627 | -95.08112 | 39095 ft | 433 kts | 355° |
| 2026-05-05 03:44 | 39.92632 | -95.07421 | 39252 ft | 432 kts | 355° |
| 2026-05-05 03:44 | 39.95600 | -95.06740 | 39295 ft | 433 kts | 355° |
| 2026-05-05 03:44 | 40.01546 | -95.05370 | 39482 ft | 432 kts | 355° |
| 2026-05-05 03:45 | 40.07457 | -95.03998 | 39662 ft | 432 kts | 356° |
| 2026-05-05 03:45 | 40.10466 | -95.03297 | 39788 ft | 431 kts | 355° |
| 2026-05-05 03:45 | 40.13409 | -95.02612 | 39850 ft | 431 kts | 356° |
| 2026-05-05 03:46 | 40.19340 | -95.01226 | 39950 ft | 431 kts | 356° |
| 2026-05-05 03:46 | 40.25283 | -94.99833 | 40070 ft | 431 kts | 356° |
| 2026-05-05 03:47 | 40.31249 | -94.98431 | 40173 ft | 432 kts | 356° |
| 2026-05-05 03:47 | 40.37192 | -94.97031 | 40352 ft | 430 kts | 356° |
| 2026-05-05 03:48 | 40.43131 | -94.95629 | 40464 ft | 430 kts | 357° |
| 2026-05-05 03:48 | 40.49028 | -94.94079 | 40567 ft | 438 kts | 2° |
| 2026-05-05 03:49 | 40.54974 | -94.91901 | 40647 ft | 440 kts | 3° |
| 2026-05-05 03:49 | 40.60902 | -94.89725 | 40635 ft | 442 kts | 3° |
| 2026-05-05 03:50 | 40.63878 | -94.88630 | 40763 ft | 440 kts | 3° |
| 2026-05-05 03:50 | 40.66839 | -94.87541 | 40800 ft | 440 kts | 4° |
| 2026-05-05 03:50 | 40.72778 | -94.85360 | 40828 ft | 441 kts | 4° |
| 2026-05-05 03:51 | 40.78745 | -94.83167 | 40818 ft | 443 kts | 4° |
| 2026-05-05 03:51 | 40.84690 | -94.80975 | 40828 ft | 444 kts | 4° |
| 2026-05-05 03:52 | 40.90657 | -94.78773 | 40832 ft | 446 kts | 4° |
| 2026-05-05 03:52 | 40.96639 | -94.76563 | 40831 ft | 447 kts | 4° |
| 2026-05-05 03:53 | 41.02657 | -94.74336 | 40830 ft | 449 kts | 4° |
| 2026-05-05 03:53 | 41.08724 | -94.72089 | 40838 ft | 450 kts | 4° |
| 2026-05-05 03:54 | 41.14811 | -94.69829 | 40835 ft | 452 kts | 4° |
| 2026-05-05 03:54 | 41.20878 | -94.67574 | 40839 ft | 454 kts | 5° |
| 2026-05-05 03:55 | 41.27003 | -94.65291 | 40840 ft | 457 kts | 5° |
| 2026-05-05 03:55 | 41.33157 | -94.62994 | 40843 ft | 459 kts | 5° |
| 2026-05-05 03:56 | 41.39333 | -94.60683 | 40836 ft | 462 kts | 5° |
| 2026-05-05 03:56 | 41.45499 | -94.58372 | 40826 ft | 463 kts | 5° |
| 2026-05-05 03:57 | 41.51717 | -94.56034 | 40832 ft | 463 kts | 5° |
| 2026-05-05 03:57 | 41.57916 | -94.53700 | 40835 ft | 462 kts | 5° |
| 2026-05-05 03:58 | 41.64085 | -94.51372 | 40829 ft | 462 kts | 5° |
| 2026-05-05 03:58 | 41.70317 | -94.49017 | 40826 ft | 462 kts | 5° |
| 2026-05-05 03:59 | 41.76549 | -94.46658 | 40825 ft | 463 kts | 5° |
| 2026-05-05 03:59 | 41.82366 | -94.44459 | 40823 ft | 463 kts | 5° |
| 2026-05-05 04:00 | 41.88604 | -94.42087 | 40828 ft | 463 kts | 5° |
| 2026-05-05 04:00 | 41.94267 | -94.39929 | 40828 ft | 463 kts | 6° |
| 2026-05-05 04:01 | 42.00476 | -94.37558 | 40826 ft | 463 kts | 6° |
| 2026-05-05 04:01 | 42.06694 | -94.35180 | 40829 ft | 463 kts | 6° |
| 2026-05-05 04:02 | 42.12965 | -94.32777 | 40828 ft | 463 kts | 6° |
| 2026-05-05 04:02 | 42.19223 | -94.30375 | 40823 ft | 465 kts | 6° |
| 2026-05-05 04:03 | 42.25494 | -94.27964 | 40830 ft | 467 kts | 7° |
| 2026-05-05 04:03 | 42.31786 | -94.25539 | 40824 ft | 467 kts | 7° |
| 2026-05-05 04:04 | 42.38137 | -94.23086 | 40832 ft | 470 kts | 6° |
| 2026-05-05 04:04 | 42.44481 | -94.20632 | 40839 ft | 473 kts | 7° |
| 2026-05-05 04:05 | 42.50858 | -94.18158 | 40811 ft | 473 kts | 7° |
| 2026-05-05 04:05 | 42.57110 | -94.15713 | 40501 ft | 453 kts | 6° |
| 2026-05-05 04:06 | 42.60135 | -94.14532 | 39960 ft | 449 kts | 6° |
| 2026-05-05 04:06 | 42.63155 | -94.13357 | 39280 ft | 450 kts | 5° |
| 2026-05-05 04:06 | 42.66170 | -94.12183 | 38634 ft | 449 kts | 5° |
| 2026-05-05 04:06 | 42.69141 | -94.11026 | 37851 ft | 453 kts | 5° |
| 2026-05-05 04:07 | 42.72189 | -94.09841 | 36990 ft | 458 kts | 5° |
| 2026-05-05 04:07 | 42.75279 | -94.08634 | 36356 ft | 456 kts | 5° |
| 2026-05-05 04:07 | 42.78316 | -94.07444 | 35831 ft | 458 kts | 5° |
| 2026-05-05 04:07 | 42.81400 | -94.06240 | 35228 ft | 463 kts | 4° |
| 2026-05-05 04:08 | 42.84509 | -94.05025 | 34345 ft | 469 kts | 4° |
| 2026-05-05 04:08 | 42.87691 | -94.03780 | 33250 ft | 474 kts | 5° |
| 2026-05-05 04:08 | 42.90817 | -94.02550 | 32371 ft | 473 kts | 5° |
| 2026-05-05 04:08 | 42.93959 | -94.01308 | 31671 ft | 468 kts | 5° |
| 2026-05-05 04:09 | 42.97064 | -94.00077 | 31067 ft | 462 kts | 5° |
| 2026-05-05 04:09 | 43.00149 | -93.98856 | 30347 ft | 459 kts | 5° |
| 2026-05-05 04:09 | 43.03184 | -93.97654 | 29744 ft | 453 kts | 5° |
| 2026-05-05 04:09 | 43.06213 | -93.96453 | 29109 ft | 448 kts | 5° |
| 2026-05-05 04:10 | 43.09176 | -93.95277 | 28489 ft | 444 kts | 5° |
| 2026-05-05 04:10 | 43.12136 | -93.94104 | 27851 ft | 440 kts | 5° |
| 2026-05-05 04:10 | 43.15039 | -93.92951 | 27226 ft | 436 kts | 5° |
| 2026-05-05 04:10 | 43.17954 | -93.91793 | 26608 ft | 432 kts | 5° |
| 2026-05-05 04:11 | 43.20829 | -93.90650 | 25942 ft | 429 kts | 5° |
| 2026-05-05 04:11 | 43.23665 | -93.89524 | 25287 ft | 426 kts | 5° |
| 2026-05-05 04:11 | 43.26492 | -93.88399 | 24650 ft | 423 kts | 5° |
| 2026-05-05 04:11 | 43.29298 | -93.87279 | 24056 ft | 418 kts | 5° |
| 2026-05-05 04:12 | 43.32067 | -93.86176 | 23414 ft | 416 kts | 5° |
| 2026-05-05 04:12 | 43.34870 | -93.85058 | 22785 ft | 413 kts | 5° |
| 2026-05-05 04:12 | 43.37597 | -93.83965 | 22283 ft | 406 kts | 5° |
| 2026-05-05 04:12 | 43.40261 | -93.82896 | 21735 ft | 401 kts | 5° |
| 2026-05-05 04:13 | 43.42961 | -93.81817 | 21067 ft | 398 kts | 5° |
| 2026-05-05 04:13 | 43.45607 | -93.80757 | 20462 ft | 394 kts | 5° |
| 2026-05-05 04:13 | 43.48215 | -93.79709 | 19938 ft | 388 kts | 4° |
| 2026-05-05 04:13 | 43.50765 | -93.78686 | 19322 ft | 385 kts | 5° |
| 2026-05-05 04:14 | 43.53353 | -93.77645 | 18731 ft | 381 kts | 4° |
| 2026-05-05 04:14 | 43.55873 | -93.76631 | 18189 ft | 376 kts | 4° |
| 2026-05-05 04:14 | 43.58359 | -93.75631 | 17619 ft | 372 kts | 5° |
| 2026-05-05 04:14 | 43.60840 | -93.74631 | 17037 ft | 370 kts | 5° |
| 2026-05-05 04:15 | 43.63268 | -93.73653 | 16526 ft | 364 kts | 5° |
| 2026-05-05 04:15 | 43.65713 | -93.72666 | 15975 ft | 360 kts | 5° |
| 2026-05-05 04:15 | 43.68087 | -93.71707 | 15427 ft | 356 kts | 5° |
| 2026-05-05 04:15 | 43.70454 | -93.70752 | 14866 ft | 353 kts | 6° |
| 2026-05-05 04:16 | 43.72812 | -93.69799 | 14314 ft | 349 kts | 6° |
| 2026-05-05 04:16 | 43.75132 | -93.68860 | 13765 ft | 346 kts | 7° |
| 2026-05-05 04:16 | 43.77436 | -93.67928 | 13238 ft | 341 kts | 7° |
| 2026-05-05 04:16 | 43.79687 | -93.67015 | 12753 ft | 336 kts | 7° |
| 2026-05-05 04:17 | 43.81913 | -93.66111 | 12262 ft | 330 kts | 7° |
| 2026-05-05 04:17 | 43.84106 | -93.65222 | 11697 ft | 328 kts | 8° |
| 2026-05-05 04:17 | 43.86293 | -93.64335 | 11139 ft | 324 kts | 8° |
| 2026-05-05 04:17 | 43.88451 | -93.63457 | 10666 ft | 319 kts | 8° |
| 2026-05-05 04:18 | 43.90548 | -93.62605 | 10219 ft | 313 kts | 9° |
| 2026-05-05 04:18 | 43.92632 | -93.61755 | 9990 ft | 310 kts | 9° |
| 2026-05-05 04:18 | 43.94696 | -93.60814 | 9968 ft | 315 kts | 16° |
| 2026-05-05 04:18 | 43.96690 | -93.59438 | 9975 ft | 318 kts | 20° |
| 2026-05-05 04:19 | 43.98647 | -93.58036 | 9969 ft | 317 kts | 20° |
| 2026-05-05 04:19 | 44.00605 | -93.56638 | 9981 ft | 317 kts | 20° |
| 2026-05-05 04:19 | 44.02585 | -93.55227 | 9973 ft | 317 kts | 20° |
| 2026-05-05 04:19 | 44.04551 | -93.53826 | 9976 ft | 317 kts | 20° |
| 2026-05-05 04:20 | 44.06542 | -93.52408 | 9980 ft | 318 kts | 19° |
| 2026-05-05 04:20 | 44.08526 | -93.50995 | 9979 ft | 318 kts | 20° |
| 2026-05-05 04:20 | 44.10621 | -93.49503 | 9978 ft | 319 kts | 20° |
| 2026-05-05 04:20 | 44.13091 | -93.47743 | 9975 ft | 319 kts | 20° |
| 2026-05-05 04:21 | 44.15076 | -93.46330 | 9979 ft | 319 kts | 19° |
| 2026-05-05 04:21 | 44.17051 | -93.44922 | 9977 ft | 319 kts | 20° |
| 2026-05-05 04:21 | 44.19034 | -93.43508 | 9980 ft | 319 kts | 19° |
| 2026-05-05 04:21 | 44.20990 | -93.42113 | 9974 ft | 318 kts | 19° |
| 2026-05-05 04:22 | 44.22986 | -93.40688 | 9979 ft | 319 kts | 19° |
| 2026-05-05 04:22 | 44.24953 | -93.39285 | 9983 ft | 320 kts | 19° |
| 2026-05-05 04:22 | 44.26925 | -93.37877 | 9986 ft | 321 kts | 19° |
| 2026-05-05 04:22 | 44.28930 | -93.36445 | 9983 ft | 322 kts | 19° |
| 2026-05-05 04:23 | 44.30920 | -93.35022 | 9985 ft | 321 kts | 19° |
| 2026-05-05 04:23 | 44.32920 | -93.33590 | 9982 ft | 320 kts | 20° |
| 2026-05-05 04:23 | 44.34861 | -93.32192 | 9984 ft | 304 kts | 19° |
| 2026-05-05 04:23 | 44.36687 | -93.30872 | 9988 ft | 290 kts | 19° |
| 2026-05-05 04:24 | 44.38481 | -93.29585 | 9982 ft | 288 kts | 19° |
| 2026-05-05 04:24 | 44.40266 | -93.28307 | 9979 ft | 287 kts | 19° |
| 2026-05-05 04:24 | 44.42051 | -93.27028 | 9981 ft | 287 kts | 19° |
| 2026-05-05 04:25 | 44.45609 | -93.24476 | 9979 ft | 287 kts | 19° |
| 2026-05-05 04:25 | 44.47363 | -93.23212 | 9980 ft | 280 kts | 19° |
| 2026-05-05 04:25 | 44.49092 | -93.21966 | 9981 ft | 277 kts | 19° |
| 2026-05-05 04:25 | 44.50816 | -93.20727 | 9907 ft | 278 kts | 19° |
| 2026-05-05 04:26 | 44.52531 | -93.19495 | 9561 ft | 279 kts | 19° |
| 2026-05-05 04:26 | 44.54249 | -93.18256 | 9211 ft | 275 kts | 19° |
| 2026-05-05 04:26 | 44.55940 | -93.17034 | 8866 ft | 271 kts | 19° |
| 2026-05-05 04:26 | 44.57607 | -93.15829 | 8517 ft | 267 kts | 19° |
| 2026-05-05 04:27 | 44.59247 | -93.14644 | 8161 ft | 263 kts | 20° |
| 2026-05-05 04:27 | 44.60888 | -93.13459 | 7814 ft | 261 kts | 19° |
| 2026-05-05 04:27 | 44.62514 | -93.12284 | 7461 ft | 261 kts | 20° |
| 2026-05-05 04:27 | 44.64133 | -93.11114 | 7115 ft | 260 kts | 20° |
| 2026-05-05 04:28 | 44.65722 | -93.09964 | 6775 ft | 258 kts | 20° |
| 2026-05-05 04:28 | 44.67311 | -93.08813 | 6433 ft | 256 kts | 20° |
| 2026-05-05 04:28 | 44.68883 | -93.07628 | 6095 ft | 257 kts | 27° |
| 2026-05-05 04:28 | 44.70303 | -93.06059 | 5752 ft | 257 kts | 34° |
| 2026-05-05 04:29 | 44.71646 | -93.04420 | 5280 ft | 251 kts | 34° |
| 2026-05-05 04:29 | 44.72898 | -93.02874 | 5254 ft | 229 kts | 34° |
| 2026-05-05 04:29 | 44.74063 | -93.01408 | 5039 ft | 218 kts | 35° |
| 2026-05-05 04:29 | 44.75180 | -93.00024 | 4724 ft | 213 kts | 32° |
| 2026-05-05 04:30 | 44.76404 | -92.98922 | 4361 ft | 205 kts | 19° |
| 2026-05-05 04:30 | 44.77731 | -92.98644 | 4028 ft | 187 kts | 339° |
| 2026-05-05 04:30 | 44.78663 | -92.99738 | 3998 ft | 178 kts | 301° |
| 2026-05-05 04:30 | 44.79226 | -93.01295 | 3889 ft | 178 kts | 299° |
| 2026-05-05 04:31 | 44.79820 | -93.02784 | 3657 ft | 169 kts | 302° |
| 2026-05-05 04:31 | 44.80424 | -93.04185 | 3439 ft | 168 kts | 303° |
| 2026-05-05 04:31 | 44.81029 | -93.05579 | 3241 ft | 166 kts | 303° |
| 2026-05-05 04:31 | 44.81630 | -93.06958 | 3009 ft | 159 kts | 303° |
| 2026-05-05 04:32 | 44.82187 | -93.08240 | 2808 ft | 150 kts | 302° |
| 2026-05-05 04:32 | 44.82731 | -93.09487 | 2578 ft | 148 kts | 302° |
| 2026-05-05 04:32 | 44.83260 | -93.10703 | 2390 ft | 145 kts | 302° |
| 2026-05-05 04:32 | 44.83753 | -93.11839 | 2219 ft | 123 kts | 302° |
| 2026-05-05 04:33 | 44.84195 | -93.12860 | 2026 ft | 121 kts | 301° |
| 2026-05-05 04:33 | 44.84611 | -93.13856 | 1836 ft | 117 kts | 301° |
| 2026-05-05 04:33 | 44.85029 | -93.14852 | 1719 ft | 118 kts | 303° |
| 2026-05-05 04:33 | 44.85488 | -93.15819 | 1553 ft | 118 kts | 303° |
| 2026-05-05 04:34 | 44.85914 | -93.16820 | 1372 ft | 119 kts | 300° |
| 2026-05-05 04:34 | 44.86351 | -93.17817 | 1220 ft | 122 kts | 302° |
| 2026-05-05 04:34 | 44.86792 | -93.18845 | 1076 ft | 122 kts | 300° |
| 2026-05-05 04:34 | 44.87244 | -93.19871 | 897 ft | 125 kts | 301° |
| 2026-05-05 04:35 | 44.87671 | -93.20847 | 815 ft | 104 kts | 301° |
| 2026-05-05 04:35 | 44.87895 | -93.21374 | 821 ft | 27 kts | 301° |
| 2026-05-05 04:35 | 44.87996 | -93.21609 | 824 ft | 22 kts | 295° |
| 2026-05-05 04:35 | 44.87967 | -93.21740 | 824 ft | 11 kts | 216° |
| 2026-05-05 04:36 | 44.87913 | -93.21709 | 824 ft | 10 kts | 121° |
| 2026-05-05 04:36 | 44.87863 | -93.21607 | 824 ft | 14 kts | 148° |
| 2026-05-05 04:36 | 44.87786 | -93.21693 | 824 ft | 16 kts | 233° |
| 2026-05-05 04:36 | 44.87766 | -93.21738 | 824 ft | 4 kts | 263° |
| 2026-05-05 04:37 | 44.87765 | -93.21770 | 824 ft | 1 kts | 270° |
| 2026-05-05 04:37 | 44.87765 | -93.21779 | 824 ft | 1 kts | 269° |
| 2026-05-05 04:37 | 44.87765 | -93.21785 | 824 ft | 0 kts | 269° |